Time;durP1;ratioP1;P1;durP2;ratioP2;P2;SDS_P1;SDS_P2;PMS_P1;PMS_P2;Temp;Humidity;BMP_temperature;BMP_pressure;BME280_temperature;BME280_humidity;BME280_pressure;Samples;Min_cycle;Max_cycle;Signal;HPM_P1;HPM_P2
2023/04/29 00:01:37;;;;;;;5.60;2.83;;;23.10;68.50;;;;;;4173215;28;20132;-45
2023/04/29 00:03:59;;;;;;;5.18;2.75;;;23.10;68.60;;;;;;4175277;28;20121;-45
2023/04/29 00:06:22;;;;;;;6.05;3.10;;;23.10;69.20;;;;;;4165959;28;20029;-46
2023/04/29 00:08:44;;;;;;;7.35;2.80;;;23.20;68.60;;;;;;4174878;28;20090;-43
2023/04/29 00:11:07;;;;;;;10.02;3.05;;;23.20;68.60;;;;;;4159912;28;20072;-45
2023/04/29 00:13:29;;;;;;;5.07;2.78;;;23.20;68.60;;;;;;4173845;28;20035;-46
2023/04/29 00:15:52;;;;;;;15.32;3.33;;;23.20;68.60;;;;;;4174990;28;20040;-51
2023/04/29 00:18:14;;;;;;;4.10;2.42;;;23.20;68.50;;;;;;4174958;28;20040;-49
2023/04/29 00:20:38;;;;;;;5.68;2.30;;;23.20;68.60;;;;;;4163917;28;20036;-42
2023/04/29 00:23:00;;;;;;;4.57;2.33;;;23.20;68.70;;;;;;4171979;28;20102;-42
2023/04/29 00:25:23;;;;;;;6.25;2.67;;;23.30;68.70;;;;;;4170144;28;20087;-46
2023/04/29 00:27:45;;;;;;;4.30;2.50;;;23.30;68.60;;;;;;4173234;28;20037;-45
2023/04/29 00:30:08;;;;;;;38.08;3.42;;;23.30;68.60;;;;;;4171968;28;20060;-45
2023/04/29 00:32:30;;;;;;;7.22;2.58;;;23.30;68.50;;;;;;4170651;28;20088;-44
2023/04/29 00:34:53;;;;;;;7.40;4.03;;;23.30;68.20;;;;;;4172598;28;20048;-48
2023/04/29 00:37:15;;;;;;;32.35;5.45;;;23.30;68.20;;;;;;4166918;28;20095;-51
2023/04/29 00:39:38;;;;;;;14.00;4.40;;;23.20;68.30;;;;;;4166682;28;20477;-54
2023/04/29 00:42:02;;;;;;;18.95;4.05;;;23.20;68.30;;;;;;4169392;28;20553;-54
2023/04/29 00:44:24;;;;;;;17.23;4.53;;;23.30;68.00;;;;;;4163149;28;20040;-48
2023/04/29 00:46:47;;;;;;;11.57;4.18;;;23.20;68.10;;;;;;4167374;28;20044;-50
2023/04/29 00:49:11;;;;;;;8.88;4.13;;;23.20;68.50;;;;;;4170423;28;20068;-46
2023/04/29 00:51:33;;;;;;;;;;;23.20;68.50;;;;;;4172111;28;20044;-50
2023/04/29 00:53:56;;;;;;;9.75;3.80;;;23.20;68.40;;;;;;4172200;28;19923;-52
2023/04/29 00:56:22;;;;;;;7.55;4.05;;;23.20;68.70;;;;;;4170865;28;20045;-49
2023/04/29 00:58:48;;;;;;;6.28;3.80;;;23.20;68.50;;;;;;4174852;28;20091;-50
2023/04/29 01:01:11;;;;;;;8.20;3.47;;;23.20;68.40;;;;;;4171609;28;20378;-52
2023/04/29 01:03:34;;;;;;;7.47;3.22;;;23.20;68.30;;;;;;4175482;28;20045;-46
2023/04/29 01:06:22;;;;;;;9.43;3.03;;;23.20;68.20;;;;;;4167916;28;20029;-47
2023/04/29 01:09:08;;;;;;;5.68;2.53;;;23.20;68.10;;;;;;4170444;28;20049;-47
2023/04/29 01:11:39;;;;;;;4.85;2.50;;;23.20;68.00;;;;;;4167665;28;20036;-52
2023/04/29 01:14:03;;;;;;;6.10;2.67;;;23.20;68.00;;;;;;4159293;28;20051;-51
2023/04/29 01:16:40;;;;;;;5.68;2.60;;;23.20;68.10;;;;;;4165750;28;20056;-49
2023/04/29 01:19:27;;;;;;;3.30;2.35;;;23.20;67.90;;;;;;4172334;28;20029;-46
2023/04/29 01:21:49;;;;;;;3.72;2.25;;;23.20;67.70;;;;;;4169261;28;20610;-48
2023/04/29 01:24:12;;;;;;;3.58;2.20;;;23.10;67.60;;;;;;4162683;28;20199;-49
2023/04/29 01:26:35;;;;;;;3.22;2.05;;;23.10;67.60;;;;;;4170985;28;20527;-46
2023/04/29 01:29:23;;;;;;;3.42;2.15;;;23.10;67.60;;;;;;4170326;28;20056;-44
2023/04/29 01:32:08;;;;;;;3.63;2.00;;;23.10;67.60;;;;;;4170411;28;20045;-46
2023/04/29 01:34:54;;;;;;;3.45;2.00;;;23.10;67.60;;;;;;4156207;28;20055;-49
2023/04/29 01:37:35;;;;;;;2.72;1.80;;;23.10;67.60;;;;;;4166572;28;20523;-47
2023/04/29 01:40:12;;;;;;;3.90;2.05;;;23.10;67.60;;;;;;4172149;28;20036;-44
2023/04/29 01:42:37;;;;;;;2.83;2.03;;;23.00;67.50;;;;;;4174659;28;20508;-51
2023/04/29 01:45:03;;;;;;;4.05;1.65;;;23.00;67.50;;;;;;4174597;28;20041;-49
2023/04/29 01:47:26;;;;;;;2.97;2.13;;;23.00;67.60;;;;;;4174460;28;20124;-53
2023/04/29 01:49:49;;;;;;;2.30;1.70;;;23.00;67.60;;;;;;4175949;28;20033;-49
2023/04/29 01:52:12;;;;;;;3.25;1.60;;;23.00;67.50;;;;;;4165228;28;20231;-53
2023/04/29 01:54:37;;;;;;;3.03;1.65;;;23.00;67.60;;;;;;4161148;28;20041;-51
2023/04/29 01:56:59;;;;;;;3.10;1.50;;;23.00;67.60;;;;;;4175864;28;20048;-47
2023/04/29 01:59:22;;;;;;;2.13;1.45;;;23.00;67.60;;;;;;4177374;28;20041;-49
2023/04/29 02:01:44;;;;;;;2.58;1.58;;;23.00;67.60;;;;;;4163452;28;20037;-46
2023/04/29 02:04:07;;;;;;;2.95;1.70;;;23.00;67.60;;;;;;4178081;28;20036;-47
2023/04/29 02:06:31;;;;;;;1.73;1.35;;;22.90;67.60;;;;;;4177969;28;20099;-52
2023/04/29 02:08:53;;;;;;;2.42;1.67;;;22.90;67.60;;;;;;4163818;28;20047;-48
2023/04/29 02:11:15;;;;;;;3.05;1.63;;;22.90;67.60;;;;;;4170558;28;20552;-50
2023/04/29 02:13:38;;;;;;;2.15;1.60;;;22.90;67.50;;;;;;4178487;28;20045;-50
2023/04/29 02:16:10;;;;;;;2.40;1.70;;;22.90;67.60;;;;;;4178448;28;20094;-50
2023/04/29 02:18:33;;;;;;;2.38;1.50;;;22.90;67.60;;;;;;4172466;28;20503;-53
2023/04/29 02:21:01;;;;;;;2.65;1.58;;;22.90;67.60;;;;;;4174947;28;20037;-51
2023/04/29 02:23:23;;;;;;;2.17;1.52;;;22.90;67.60;;;;;;4166180;28;20068;-53
2023/04/29 02:25:46;;;;;;;2.42;1.70;;;22.90;67.60;;;;;;4173115;28;20078;-46
2023/04/29 02:28:09;;;;;;;1.77;1.37;;;22.90;67.60;;;;;;4174743;28;20441;-50
2023/04/29 02:30:31;;;;;;;2.53;1.60;;;22.90;67.70;;;;;;4176412;28;20119;-49
2023/04/29 02:32:54;;;;;;;2.00;1.40;;;22.80;67.60;;;;;;4171378;28;20044;-51
2023/04/29 02:35:16;;;;;;;2.30;1.55;;;22.80;67.60;;;;;;4162691;28;20043;-53
2023/04/29 02:37:39;;;;;;;2.50;1.60;;;22.80;67.70;;;;;;4167930;28;20417;-52
2023/04/29 02:40:02;;;;;;;2.65;1.63;;;22.80;67.70;;;;;;4170226;28;20037;-52
2023/04/29 02:42:24;;;;;;;2.67;1.60;;;22.80;67.70;;;;;;4173188;28;20315;-48
2023/04/29 02:44:47;;;;;;;1.55;1.45;;;22.80;67.70;;;;;;4176341;28;20047;-49
2023/04/29 02:47:09;;;;;;;2.38;1.58;;;22.80;67.70;;;;;;4173885;28;20033;-51
2023/04/29 02:49:32;;;;;;;1.70;1.50;;;22.80;67.70;;;;;;4173244;28;20032;-52
2023/04/29 02:51:54;;;;;;;2.30;1.63;;;22.70;67.70;;;;;;4171422;28;20045;-48
2023/04/29 02:54:17;;;;;;;2.58;1.73;;;22.70;67.70;;;;;;4169631;28;20033;-50
2023/04/29 02:56:39;;;;;;;2.00;1.33;;;22.80;67.70;;;;;;4157443;28;20048;-46
2023/04/29 02:59:02;;;;;;;1.98;1.45;;;22.70;67.70;;;;;;4174815;28;20369;-50
2023/04/29 03:01:24;;;;;;;2.72;1.55;;;22.70;67.70;;;;;;4162348;28;20045;-48
2023/04/29 03:03:48;;;;;;;1.73;1.35;;;22.70;67.70;;;;;;4173479;28;20130;-56
2023/04/29 03:06:10;;;;;;;2.38;1.40;;;22.70;67.70;;;;;;4172892;28;20033;-51
2023/04/29 03:08:33;;;;;;;1.98;1.40;;;22.70;67.70;;;;;;4174313;28;20041;-47
2023/04/29 03:10:55;;;;;;;2.47;1.73;;;22.70;67.70;;;;;;4175938;28;20451;-50
2023/04/29 03:13:17;;;;;;;2.20;1.40;;;22.70;67.70;;;;;;4176930;28;20029;-53
2023/04/29 03:15:40;;;;;;;2.80;1.55;;;22.70;67.80;;;;;;4170043;28;20043;-51
2023/04/29 03:18:03;;;;;;;1.95;1.35;;;22.70;67.80;;;;;;4171762;28;20780;-48
2023/04/29 03:20:26;;;;;;;1.90;1.30;;;22.70;67.90;;;;;;4168720;28;20033;-49
2023/04/29 03:22:48;;;;;;;2.42;1.50;;;22.70;67.80;;;;;;4170183;28;20293;-49
2023/04/29 03:25:12;;;;;;;1.70;1.20;;;22.70;67.90;;;;;;4175812;28;20040;-48
2023/04/29 03:27:34;;;;;;;2.17;1.65;;;22.70;67.90;;;;;;4168101;28;20059;-46
2023/04/29 03:29:57;;;;;;;2.10;1.48;;;22.60;67.90;;;;;;4159803;28;20139;-48
2023/04/29 03:32:19;;;;;;;1.83;1.40;;;22.70;68.00;;;;;;4168090;28;20037;-45
2023/04/29 03:34:42;;;;;;;1.73;1.40;;;22.60;67.90;;;;;;4175366;28;20033;-50
2023/04/29 03:37:04;;;;;;;1.60;1.30;;;22.60;67.90;;;;;;4171179;28;20061;-45
2023/04/29 03:39:31;;;;;;;2.20;1.60;;;22.60;67.90;;;;;;4175961;28;20654;-46
2023/04/29 03:41:53;;;;;;;1.80;1.40;;;22.60;68.00;;;;;;4156344;28;20048;-49
2023/04/29 03:44:15;;;;;;;1.60;1.20;;;22.60;68.00;;;;;;4170450;28;20044;-49
2023/04/29 03:46:38;;;;;;;1.73;1.15;;;22.60;68.00;;;;;;4175124;28;20489;-46
2023/04/29 03:49:01;;;;;;;2.13;1.45;;;22.60;68.00;;;;;;4175802;28;20036;-45
2023/04/29 03:51:26;;;;;;;1.42;1.23;;;22.60;68.00;;;;;;4163855;28;20470;-48
2023/04/29 03:53:50;;;;;;;2.53;1.27;;;22.60;68.00;;;;;;4162555;28;20112;-47
2023/04/29 03:56:13;;;;;;;1.95;1.42;;;22.60;68.00;;;;;;4173268;28;20068;-49
2023/04/29 03:58:35;;;;;;;1.20;1.08;;;22.60;68.00;;;;;;4173929;28;20040;-46
2023/04/29 04:00:58;;;;;;;1.70;1.17;;;22.60;68.00;;;;;;4174487;28;20032;-49
2023/04/29 04:03:21;;;;;;;2.55;1.67;;;22.60;68.10;;;;;;4167568;28;20036;-46
2023/04/29 04:05:43;;;;;;;3.35;1.70;;;22.60;68.10;;;;;;4172104;28;20037;-45
2023/04/29 04:08:06;;;;;;;2.22;1.40;;;22.60;68.10;;;;;;4175531;28;20106;-48
2023/04/29 04:10:28;;;;;;;1.67;1.38;;;22.60;68.10;;;;;;4174544;28;20102;-48
2023/04/29 04:12:51;;;;;;;1.95;1.30;;;22.60;68.10;;;;;;4168503;28;21064;-46
2023/04/29 04:15:14;;;;;;;1.58;1.27;;;22.60;68.10;;;;;;4175756;28;20059;-49
2023/04/29 04:17:36;;;;;;;1.83;1.20;;;22.60;68.10;;;;;;4174406;28;20496;-47
2023/04/29 04:19:59;;;;;;;1.20;1.10;;;22.50;68.10;;;;;;4175219;28;20033;-48
2023/04/29 04:22:21;;;;;;;3.25;1.27;;;22.60;68.20;;;;;;4172034;28;20045;-48
2023/04/29 04:24:43;;;;;;;1.92;1.40;;;22.60;68.20;;;;;;4175405;28;20425;-49
2023/04/29 04:27:06;;;;;;;2.17;1.55;;;22.60;68.20;;;;;;4175222;28;20039;-46
2023/04/29 04:29:28;;;;;;;1.60;1.30;;;22.50;68.10;;;;;;4174211;28;20033;-52
2023/04/29 04:31:51;;;;;;;1.73;0.95;;;22.50;68.20;;;;;;4171302;28;20041;-49
2023/04/29 04:34:13;;;;;;;1.70;1.23;;;22.60;68.20;;;;;;4175734;28;20499;-53
2023/04/29 04:36:35;;;;;;;1.27;1.02;;;22.60;68.20;;;;;;4175437;28;20049;-47
2023/04/29 04:38:58;;;;;;;2.30;1.30;;;22.50;68.20;;;;;;4161806;28;20045;-52
2023/04/29 04:41:20;;;;;;;1.95;1.13;;;22.50;68.20;;;;;;4158360;28;20091;-47
2023/04/29 04:43:43;;;;;;;1.42;1.30;;;22.60;68.20;;;;;;4171496;28;20044;-48
2023/04/29 04:46:16;;;;;;;1.43;1.10;;;22.50;68.20;;;;;;4173125;28;20373;-46
2023/04/29 04:48:38;;;;;;;1.30;1.05;;;22.50;68.20;;;;;;4170510;28;20408;-50
2023/04/29 04:51:11;;;;;;;1.45;1.05;;;22.50;68.20;;;;;;4166478;28;20035;-45
2023/04/29 04:53:33;;;;;;;1.75;1.13;;;22.50;68.20;;;;;;4171956;28;20032;-46
2023/04/29 04:55:59;;;;;;;1.25;0.90;;;22.50;68.30;;;;;;4171948;28;20120;-48
2023/04/29 04:58:22;;;;;;;1.85;1.20;;;22.50;68.20;;;;;;4149331;28;20124;-50
2023/04/29 05:00:45;;;;;;;1.60;1.20;;;22.50;68.20;;;;;;4170025;28;20038;-48
2023/04/29 05:03:08;;;;;;;1.48;1.25;;;22.50;68.20;;;;;;4169711;28;20039;-47
2023/04/29 05:05:32;;;;;;;1.35;1.10;;;22.50;68.20;;;;;;4176594;28;20132;-51
2023/04/29 05:07:54;;;;;;;1.50;1.05;;;22.50;68.20;;;;;;4181294;28;20101;-48
2023/04/29 05:10:17;;;;;;;1.42;1.10;;;22.50;68.20;;;;;;4174762;28;20048;-52
2023/04/29 05:12:39;;;;;;;1.10;1.00;;;22.50;68.20;;;;;;4174752;28;20037;-52
2023/04/29 05:15:03;;;;;;;3.03;1.20;;;22.50;68.20;;;;;;4177147;28;20125;-47
2023/04/29 05:17:25;;;;;;;0.90;0.77;;;22.50;68.30;;;;;;4175751;28;20048;-53
2023/04/29 05:19:48;;;;;;;1.95;1.15;;;22.50;68.30;;;;;;4162255;28;20034;-47
2023/04/29 05:22:10;;;;;;;1.38;0.90;;;22.40;68.20;;;;;;4160772;28;20846;-48
2023/04/29 05:24:32;;;;;;;1.90;1.10;;;22.40;68.20;;;;;;4174860;28;20083;-50
2023/04/29 05:26:55;;;;;;;2.08;1.10;;;22.50;68.30;;;;;;4171743;28;20360;-52
2023/04/29 05:29:17;;;;;;;1.13;0.88;;;22.50;68.30;;;;;;4169162;28;20578;-48
2023/04/29 05:31:40;;;;;;;1.27;1.10;;;22.50;68.30;;;;;;4161207;28;20053;-53
2023/04/29 05:34:02;;;;;;;1.17;1.00;;;22.50;68.30;;;;;;4155953;28;20037;-48
2023/04/29 05:36:26;;;;;;;1.40;0.98;;;22.50;68.40;;;;;;4157766;28;20159;-47
2023/04/29 05:38:49;;;;;;;1.38;0.93;;;22.40;68.30;;;;;;4161059;28;20099;-51
2023/04/29 05:41:12;;;;;;;1.65;0.90;;;22.40;68.30;;;;;;4143516;28;20109;-47
2023/04/29 05:43:35;;;;;;;1.38;1.17;;;22.40;68.30;;;;;;4143465;28;20034;-45
2023/04/29 05:45:57;;;;;;;1.77;1.30;;;22.40;68.30;;;;;;4146730;28;20046;-49
2023/04/29 05:48:20;;;;;;;1.77;1.02;;;22.40;68.30;;;;;;4158507;28;20033;-52
2023/04/29 05:50:43;;;;;;;1.65;1.25;;;22.40;68.40;;;;;;4154652;28;20447;-50
2023/04/29 05:53:05;;;;;;;1.65;1.02;;;22.40;68.30;;;;;;4151269;28;20030;-55
2023/04/29 05:55:28;;;;;;;1.88;1.00;;;22.40;68.40;;;;;;4152843;28;20417;-48
2023/04/29 05:57:50;;;;;;;1.35;1.00;;;22.40;68.40;;;;;;4160083;28;20049;-50
2023/04/29 06:00:13;;;;;;;1.67;0.90;;;22.40;68.40;;;;;;4156392;28;20120;-52
2023/04/29 06:02:35;;;;;;;1.15;1.00;;;22.40;68.40;;;;;;4145969;28;20057;-48
2023/04/29 06:04:58;;;;;;;2.17;1.17;;;22.40;68.40;;;;;;4152144;28;20417;-52
2023/04/29 06:07:20;;;;;;;1.23;0.90;;;22.40;68.40;;;;;;4156001;28;20045;-50
2023/04/29 06:09:43;;;;;;;1.38;1.05;;;22.40;68.40;;;;;;4143861;28;20524;-51
2023/04/29 06:12:05;;;;;;;1.42;0.98;;;22.30;68.40;;;;;;4153007;28;20037;-51
2023/04/29 06:14:33;;;;;;;0.90;0.80;;;22.30;68.40;;;;;;4159161;28;20107;-51
2023/04/29 06:16:55;;;;;;;0.82;0.75;;;22.30;68.40;;;;;;4156627;28;20053;-49
2023/04/29 06:19:18;;;;;;;1.50;1.00;;;22.30;68.50;;;;;;4142022;28;20037;-47
2023/04/29 06:21:40;;;;;;;1.30;0.93;;;22.30;68.50;;;;;;4155751;28;20041;-49
2023/04/29 06:24:03;;;;;;;1.30;1.00;;;22.30;68.50;;;;;;4156855;28;20128;-49
2023/04/29 06:26:26;;;;;;;1.30;1.00;;;22.30;68.50;;;;;;4157848;28;20167;-48
2023/04/29 06:29:00;;;;;;;1.23;1.00;;;22.30;68.50;;;;;;4143438;28;20052;-50
2023/04/29 06:31:22;;;;;;;1.58;1.00;;;22.30;68.50;;;;;;4157130;28;20056;-49
2023/04/29 06:33:45;;;;;;;1.77;0.93;;;22.30;68.60;;;;;;4172649;28;20071;-48
2023/04/29 06:36:08;;;;;;;1.52;1.02;;;22.30;68.60;;;;;;4169054;28;20029;-48
2023/04/29 06:38:31;;;;;;;1.10;1.00;;;22.30;68.60;;;;;;4175756;28;20041;-48
2023/04/29 06:40:53;;;;;;;1.33;1.05;;;22.30;68.70;;;;;;4174772;28;20481;-49
2023/04/29 06:43:16;;;;;;;1.25;0.82;;;22.30;68.60;;;;;;4172494;28;20568;-49
2023/04/29 06:45:38;;;;;;;1.27;1.05;;;22.30;68.70;;;;;;4175516;28;20047;-48
2023/04/29 06:48:00;;;;;;;1.67;1.13;;;22.30;68.70;;;;;;4172748;28;20037;-50
2023/04/29 06:50:23;;;;;;;0.80;0.80;;;22.30;68.70;;;;;;4162406;28;20048;-54
2023/04/29 06:52:45;;;;;;;1.33;1.00;;;22.30;68.70;;;;;;4170981;28;20025;-56
2023/04/29 06:55:09;;;;;;;1.45;1.23;;;22.30;68.90;;;;;;4174847;28;20044;-51
2023/04/29 06:57:32;;;;;;;2.88;1.23;;;22.30;69.00;;;;;;4158520;28;20155;-52
2023/04/29 06:59:55;;;;;;;1.90;1.08;;;22.30;69.00;;;;;;4177567;28;20032;-52
2023/04/29 07:02:17;;;;;;;1.60;1.02;;;22.20;68.90;;;;;;4177246;28;20033;-52
2023/04/29 07:04:40;;;;;;;2.72;1.40;;;22.20;69.00;;;;;;4173896;28;20131;-52
2023/04/29 07:07:02;;;;;;;1.33;1.05;;;22.30;69.00;;;;;;4160768;28;20049;-52
2023/04/29 07:09:29;;;;;;;1.27;1.10;;;22.30;69.10;;;;;;4158639;28;20117;-53
2023/04/29 07:11:54;;;;;;;2.03;1.10;;;22.20;69.00;;;;;;4177132;28;20444;-49
2023/04/29 07:14:24;;;;;;;2.22;1.50;;;22.20;69.00;;;;;;4168942;28;20033;-50
2023/04/29 07:16:46;;;;;;;2.53;1.58;;;22.20;69.00;;;;;;4170460;28;20049;-48
2023/04/29 07:19:12;;;;;;;3.13;2.03;;;22.20;69.00;;;;;;4171547;28;20063;-51
2023/04/29 07:21:58;;;;;;;3.28;2.28;;;22.20;69.00;;;;;;4167495;28;20049;-50
2023/04/29 07:24:42;;;;;;;4.60;2.40;;;22.20;69.10;;;;;;4173141;28;20119;-47
2023/04/29 07:27:17;;;;;;;3.33;2.10;;;22.20;69.70;;;;;;4175283;28;20094;-46
2023/04/29 07:29:44;;;;;;;4.50;2.55;;;22.20;69.10;;;;;;4171718;28;20044;-48
2023/04/29 07:32:06;;;;;;;4.97;2.70;;;22.20;69.20;;;;;;4167986;28;20523;-51
2023/04/29 07:34:39;;;;;;;5.53;2.88;;;22.20;69.20;;;;;;4170921;28;20040;-50
2023/04/29 07:37:04;;;;;;;5.45;3.15;;;22.20;69.30;;;;;;4168322;28;20048;-50
2023/04/29 07:39:34;;;;;;;4.68;3.20;;;22.20;69.20;;;;;;4168471;28;20041;-51
2023/04/29 07:42:00;;;;;;;5.18;3.20;;;22.20;69.30;;;;;;4169827;28;20489;-52
2023/04/29 07:44:23;;;;;;;4.93;3.33;;;22.20;69.30;;;;;;4171606;28;20038;-52
2023/04/29 07:46:46;;;;;;;6.03;3.33;;;22.20;69.30;;;;;;4166209;28;20041;-48
2023/04/29 07:49:09;;;;;;;4.65;3.25;;;22.20;69.30;;;;;;4174770;28;20087;-49
2023/04/29 07:51:31;;;;;;;5.90;3.55;;;22.20;69.30;;;;;;4164301;28;20045;-50
2023/04/29 07:53:54;;;;;;;5.07;2.90;;;22.20;69.40;;;;;;4164640;28;20044;-53
2023/04/29 07:56:16;;;;;;;5.53;3.35;;;22.20;69.40;;;;;;4158265;28;20060;-52
2023/04/29 07:58:41;;;;;;;5.32;3.13;;;22.10;69.30;;;;;;4158972;28;20053;-51
2023/04/29 08:01:09;;;;;;;5.13;3.17;;;22.10;69.30;;;;;;4159541;28;20044;-51
2023/04/29 08:03:31;;;;;;;5.18;3.28;;;22.10;69.40;;;;;;4162161;28;20378;-50
2023/04/29 08:05:55;;;;;;;6.78;3.55;;;22.10;69.30;;;;;;4159301;28;20051;-50
2023/04/29 08:08:17;;;;;;;6.28;3.40;;;22.10;69.30;;;;;;4149711;28;20061;-48
2023/04/29 08:10:42;;;;;;;5.80;3.00;;;22.10;69.40;;;;;;4155753;28;20371;-53
2023/04/29 08:13:04;;;;;;;4.50;3.25;;;22.10;69.40;;;;;;4141412;28;20073;-50
2023/04/29 08:15:27;;;;;;;6.20;3.25;;;22.10;69.40;;;;;;4162000;28;20127;-48
2023/04/29 08:17:49;;;;;;;4.78;2.90;;;22.10;69.50;;;;;;4165334;28;20528;-51
2023/04/29 08:20:12;;;;;;;4.40;2.67;;;22.10;69.50;;;;;;4160020;28;20442;-51
2023/04/29 08:22:35;;;;;;;4.75;2.70;;;22.10;69.50;;;;;;4168442;28;20485;-46
2023/04/29 08:24:57;;;;;;;4.57;2.57;;;22.10;69.50;;;;;;4159346;28;20083;-52
2023/04/29 08:27:20;;;;;;;3.63;2.35;;;22.10;69.50;;;;;;4161944;28;20040;-54
2023/04/29 08:29:43;;;;;;;4.05;2.40;;;22.10;69.50;;;;;;4160026;28;20045;-51
2023/04/29 08:32:05;;;;;;;4.13;2.30;;;22.10;69.50;;;;;;4162740;28;20033;-48
2023/04/29 08:34:28;;;;;;;4.40;2.20;;;22.10;69.50;;;;;;4166669;28;20048;-49
2023/04/29 08:36:50;;;;;;;3.65;2.33;;;22.10;69.50;;;;;;4165482;28;20483;-47
2023/04/29 08:39:13;;;;;;;3.63;2.17;;;22.10;69.50;;;;;;4162866;28;20033;-52
2023/04/29 08:41:37;;;;;;;3.45;2.03;;;22.10;69.50;;;;;;4160479;28;20043;-53
2023/04/29 08:43:59;;;;;;;4.18;2.33;;;22.00;69.40;;;;;;4163134;28;20068;-51
2023/04/29 08:46:25;;;;;;;3.67;2.00;;;22.10;69.50;;;;;;4162090;28;20277;-48
2023/04/29 08:48:48;;;;;;;3.38;1.90;;;22.10;69.50;;;;;;4165565;28;20049;-49
2023/04/29 08:51:15;;;;;;;3.10;2.10;;;22.10;69.50;;;;;;4158000;28;20032;-47
2023/04/29 08:53:37;;;;;;;2.90;1.60;;;22.10;69.50;;;;;;4165439;28;20037;-48
2023/04/29 08:56:14;;;;;;;3.25;1.80;;;22.00;69.50;;;;;;4164882;28;20070;-54
2023/04/29 08:58:40;;;;;;;3.03;1.63;;;22.10;69.50;;;;;;4162799;28;20049;-49
2023/04/29 09:01:02;;;;;;;3.20;1.92;;;22.00;69.50;;;;;;4163121;28;20495;-53
2023/04/29 09:03:57;;;;;;;2.20;1.38;;;22.00;69.50;;;;;;4169158;28;20037;-47
2023/04/29 09:06:20;;;;;;;3.55;1.83;;;22.00;69.50;;;;;;4162595;28;20476;-49
2023/04/29 09:08:43;;;;;;;2.50;1.63;;;22.00;69.50;;;;;;4159989;28;20421;-50
2023/04/29 09:11:10;;;;;;;2.42;1.42;;;22.00;69.60;;;;;;4167143;28;20037;-51
2023/04/29 09:13:33;;;;;;;1.88;1.27;;;22.00;69.60;;;;;;4149135;28;20152;-48
2023/04/29 09:15:56;;;;;;;2.35;1.35;;;22.00;69.60;;;;;;4163173;28;20345;-49
2023/04/29 09:18:47;;;;;;;2.55;1.30;;;22.00;69.70;;;;;;4167250;28;20071;-49
2023/04/29 09:21:26;;;;;;;1.83;1.20;;;22.00;69.60;;;;;;4164156;28;20436;-50
2023/04/29 09:23:54;;;;;;;2.45;1.20;;;21.90;69.60;;;;;;4163896;28;20052;-48
2023/04/29 09:26:17;;;;;;;1.75;1.08;;;22.00;69.60;;;;;;4161295;28;20424;-51
2023/04/29 09:28:42;;;;;;;2.23;1.20;;;21.90;69.60;;;;;;4165072;28;20052;-48
2023/04/29 09:31:06;;;;;;;2.45;1.20;;;21.90;69.60;;;;;;4157217;28;20080;-52
2023/04/29 09:33:30;;;;;;;2.13;1.17;;;21.90;69.60;;;;;;4159213;28;20045;-47
2023/04/29 09:35:52;;;;;;;1.35;0.80;;;21.90;69.60;;;;;;4142255;28;20090;-49
2023/04/29 09:38:15;;;;;;;1.67;1.13;;;21.90;69.60;;;;;;4163941;28;20041;-47
2023/04/29 09:40:39;;;;;;;1.42;0.90;;;21.90;69.00;;;;;;4165558;28;20150;-46
2023/04/29 09:43:02;;;;;;;;;;;21.90;69.60;;;;;;4161019;28;20120;-47
2023/04/29 09:45:34;;;;;;;1.50;1.05;;;21.90;69.60;;;;;;4167527;28;20022;-48
2023/04/29 09:48:07;;;;;;;1.70;0.95;;;21.90;69.60;;;;;;4165493;28;20492;-53
2023/04/29 09:50:31;;;;;;;1.85;0.75;;;21.90;69.60;;;;;;4165141;28;20052;-46
2023/04/29 09:52:53;;;;;;;1.27;0.90;;;21.90;69.60;;;;;;4166737;28;20471;-49
2023/04/29 09:55:16;;;;;;;1.90;0.90;;;21.90;69.60;;;;;;4157913;28;20068;-51
2023/04/29 09:57:42;;;;;;;1.30;0.77;;;21.90;69.60;;;;;;4159189;28;20051;-50
2023/04/29 10:00:04;;;;;;;1.30;0.80;;;21.90;69.70;;;;;;4146097;28;20668;-55
2023/04/29 10:02:27;;;;;;;1.38;0.70;;;21.90;69.70;;;;;;4164488;28;20106;-48
2023/04/29 10:04:57;;;;;;;0.85;0.80;;;21.90;69.70;;;;;;4159593;28;20033;-53
2023/04/29 10:07:20;;;;;;;1.05;0.80;;;21.90;69.80;;;;;;4162852;28;20488;-49
2023/04/29 10:09:47;;;;;;;1.63;0.93;;;21.80;69.70;;;;;;4162508;28;20029;-52
2023/04/29 10:12:10;;;;;;;1.40;0.80;;;21.80;69.70;;;;;;4162772;28;20149;-51
2023/04/29 10:14:45;;;;;;;0.63;0.52;;;21.80;69.70;;;;;;4158103;28;20033;-47
2023/04/29 10:17:35;;;;;;;2.33;0.90;;;21.80;69.80;;;;;;4163363;28;20583;-49
2023/04/29 10:20:06;;;;;;;2.22;0.90;;;21.80;69.80;;;;;;4164187;28;20088;-51
2023/04/29 10:22:44;;;;;;;1.13;0.70;;;21.80;69.80;;;;;;4159960;28;20034;-53
2023/04/29 10:25:09;;;;;;;1.20;0.57;;;21.80;69.90;;;;;;4171397;28;20275;-54
2023/04/29 10:27:33;;;;;;;0.75;0.63;;;21.70;69.80;;;;;;4163328;28;20044;-56
2023/04/29 10:29:56;;;;;;;;;;;21.70;69.90;;;;;;4159134;28;20045;-52
2023/04/29 10:32:21;;;;;;;0.88;0.50;;;21.70;69.90;;;;;;4162092;28;20103;-51
2023/04/29 10:34:44;;;;;;;0.93;0.60;;;21.70;70.00;;;;;;4165060;28;20120;-53
2023/04/29 10:37:16;;;;;;;1.23;0.83;;;21.70;70.00;;;;;;4160346;28;20072;-53
2023/04/29 10:39:57;;;;;;;0.90;0.70;;;21.70;70.60;;;;;;4162302;28;20056;-54
2023/04/29 10:42:48;;;;;;;0.55;0.50;;;21.70;70.00;;;;;;4159458;28;20040;-52
2023/04/29 10:45:33;;;;;;;0.80;0.47;;;21.60;70.00;;;;;;4160118;28;20037;-52
2023/04/29 10:48:04;;;;;;;0.60;0.60;;;21.70;70.00;;;;;;4150297;28;20079;-51
2023/04/29 10:50:28;;;;;;;0.68;0.50;;;21.60;70.00;;;;;;4156379;28;20044;-46
2023/04/29 10:52:56;;;;;;;0.52;0.50;;;21.60;70.00;;;;;;4167058;28;20082;-51
2023/04/29 10:55:19;;;;;;;0.30;0.30;;;21.60;70.00;;;;;;4159630;28;20037;-48
2023/04/29 10:57:41;;;;;;;0.75;0.43;;;21.60;70.00;;;;;;4163750;28;20100;-50
2023/04/29 11:00:05;;;;;;;0.98;0.60;;;21.70;70.00;;;;;;4166970;28;20132;-53
2023/04/29 11:02:28;;;;;;;0.77;0.50;;;21.60;70.00;;;;;;4151201;28;20605;-55
2023/04/29 11:05:11;;;;;;;0.30;0.30;;;21.60;70.00;;;;;;4160995;28;20057;-52
2023/04/29 11:07:33;;;;;;;0.50;0.50;;;21.60;70.00;;;;;;4160096;28;20052;-52
2023/04/29 11:09:56;;;;;;;0.82;0.50;;;21.60;70.00;;;;;;4160406;28;20037;-48
2023/04/29 11:12:20;;;;;;;0.68;0.40;;;21.60;70.00;;;;;;4163531;28;20414;-52
2023/04/29 11:14:49;;;;;;;1.08;0.55;;;21.60;70.00;;;;;;4160118;28;20041;-49
2023/04/29 11:17:19;;;;;;;0.90;0.50;;;21.60;70.00;;;;;;4159203;28;20106;-51
2023/04/29 11:19:47;;;;;;;0.70;0.47;;;21.60;70.10;;;;;;4164075;28;20065;-49
2023/04/29 11:22:16;;;;;;;0.82;0.50;;;21.50;70.00;;;;;;4167885;28;20463;-53
2023/04/29 11:24:59;;;;;;;0.50;0.50;;;21.50;70.10;;;;;;4160267;28;20527;-52
2023/04/29 11:27:26;;;;;;;0.60;0.50;;;21.50;70.10;;;;;;4151184;28;20098;-54
2023/04/29 11:29:51;;;;;;;1.00;0.45;;;21.50;70.10;;;;;;4162708;28;20041;-52
2023/04/29 11:32:13;;;;;;;0.47;0.30;;;21.60;70.10;;;;;;4166712;28;20068;-50
2023/04/29 11:34:36;;;;;;;1.52;0.50;;;21.60;70.10;;;;;;4163951;28;20049;-51
2023/04/29 11:36:59;;;;;;;0.65;0.40;;;21.50;70.00;;;;;;4164505;28;20052;-53
2023/04/29 11:39:22;;;;;;;0.65;0.40;;;21.60;70.10;;;;;;4168418;28;20163;-54
2023/04/29 11:41:44;;;;;;;1.30;0.40;;;21.50;70.00;;;;;;4156287;28;20049;-52
2023/04/29 11:44:08;;;;;;;0.80;0.52;;;21.50;70.50;;;;;;4158576;28;20037;-49
2023/04/29 11:46:31;;;;;;;0.63;0.45;;;21.50;70.10;;;;;;4170599;28;20098;-52
2023/04/29 11:48:54;;;;;;;0.30;0.30;;;21.50;70.00;;;;;;4166269;28;20804;-50
2023/04/29 11:51:18;;;;;;;0.75;0.50;;;21.50;70.00;;;;;;4166198;28;20030;-53
2023/04/29 11:53:40;;;;;;;;;;;21.50;70.10;;;;;;4173503;28;20544;-51
2023/04/29 11:56:03;;;;;;;0.80;0.30;;;21.50;70.10;;;;;;4166774;28;19909;-48
2023/04/29 11:58:26;;;;;;;0.97;0.50;;;21.50;70.10;;;;;;4168037;28;20048;-50
2023/04/29 12:00:49;;;;;;;0.82;0.40;;;21.50;70.10;;;;;;4163962;28;20041;-52
2023/04/29 12:03:16;;;;;;;0.40;0.38;;;21.50;70.10;;;;;;4165388;28;20061;-52
2023/04/29 12:05:38;;;;;;;0.65;0.50;;;21.50;70.20;;;;;;4161122;28;20045;-51
2023/04/29 12:08:00;;;;;;;0.80;0.55;;;21.50;70.20;;;;;;4166565;28;20551;-49
2023/04/29 12:10:23;;;;;;;0.85;0.52;;;21.40;70.10;;;;;;4175872;28;20067;-45
2023/04/29 12:12:46;;;;;;;0.57;0.30;;;21.50;70.20;;;;;;4165196;28;20031;-50
2023/04/29 12:15:09;;;;;;;0.77;0.50;;;21.40;70.30;;;;;;4160321;28;20136;-53
2023/04/29 12:17:32;;;;;;;0.65;0.50;;;21.40;70.20;;;;;;4157792;28;20081;-54
2023/04/29 12:19:55;;;;;;;0.20;0.20;;;21.50;70.20;;;;;;4174736;28;20048;-49
2023/04/29 12:22:18;;;;;;;0.80;0.63;;;21.40;70.20;;;;;;4173505;28;20044;-52
2023/04/29 12:24:41;;;;;;;0.40;0.40;;;21.40;70.10;;;;;;4175277;28;20041;-52
2023/04/29 12:27:07;;;;;;;0.55;0.40;;;21.40;70.10;;;;;;4174683;28;20138;-54
2023/04/29 12:29:31;;;;;;;0.73;0.60;;;21.40;70.10;;;;;;4175252;28;20177;-49
2023/04/29 12:31:55;;;;;;;0.30;0.30;;;21.40;70.10;;;;;;4173397;28;20055;-55
2023/04/29 12:34:23;;;;;;;0.82;0.50;;;21.40;70.10;;;;;;4175161;28;20043;-50
2023/04/29 12:36:46;;;;;;;0.73;0.30;;;21.40;70.10;;;;;;4172697;28;20132;-48